Time;durP1;ratioP1;P1;durP2;ratioP2;P2;SDS_P1;SDS_P2;PMS_P1;PMS_P2;Temp;Humidity;BMP_temperature;BMP_pressure;BME280_temperature;BME280_humidity;BME280_pressure;Samples;Min_cycle;Max_cycle;Signal;HPM_P1;HPM_P2
2022/03/09 00:00:27;;;;;;;35.58;17.02;;;7.50;99.90;;;;;;5010238;28;20053;-59
2022/03/09 00:02:55;;;;;;;47.97;17.85;;;7.50;99.90;;;;;;5008923;28;20061;-59
2022/03/09 00:05:24;;;;;;;32.28;15.68;;;7.60;99.90;;;;;;5006271;28;20069;-60
2022/03/09 00:07:52;;;;;;;36.78;16.48;;;7.60;99.90;;;;;;5008228;28;20398;-59
2022/03/09 00:10:23;;;;;;;29.83;15.38;;;7.60;99.90;;;;;;5009401;28;20049;-59
2022/03/09 00:12:52;;;;;;;34.30;16.75;;;7.60;99.90;;;;;;5007502;28;20054;-58
2022/03/09 00:15:19;;;;;;;38.10;17.92;;;7.60;99.90;;;;;;5009379;28;20053;-58
2022/03/09 00:17:47;;;;;;;34.38;16.00;;;7.60;99.90;;;;;;5008099;28;20406;-59
2022/03/09 00:20:15;;;;;;;31.83;16.38;;;7.60;99.90;;;;;;5009795;28;20551;-60
2022/03/09 00:22:43;;;;;;;45.28;17.73;;;7.50;99.90;;;;;;5009248;28;20536;-59
2022/03/09 00:25:11;;;;;;;36.13;17.42;;;7.50;99.90;;;;;;4991758;28;20050;-59
2022/03/09 00:27:38;;;;;;;32.58;15.82;;;7.50;99.90;;;;;;5008837;28;20409;-58
2022/03/09 00:30:07;;;;;;;33.03;16.67;;;7.40;99.90;;;;;;5028676;28;20041;-59
2022/03/09 00:32:38;;;;;;;39.30;18.30;;;7.40;99.90;;;;;;5002250;28;20042;-59
2022/03/09 00:35:08;;;;;;;42.58;17.13;;;7.40;99.90;;;;;;5027812;28;20041;-58
2022/03/09 00:37:36;;;;;;;35.38;17.33;;;7.30;99.90;;;;;;5029039;28;20053;-58
2022/03/09 00:40:05;;;;;;;36.10;16.80;;;7.30;99.90;;;;;;5011666;28;20404;-59
2022/03/09 00:42:38;;;;;;;39.28;19.52;;;7.30;99.90;;;;;;5027269;28;20056;-58
2022/03/09 00:45:07;;;;;;;48.00;18.08;;;7.30;99.90;;;;;;5027252;28;20064;-59
2022/03/09 00:47:36;;;;;;;41.33;18.43;;;7.20;99.90;;;;;;5029326;28;20049;-59
2022/03/09 00:50:05;;;;;;;45.90;19.08;;;7.20;99.90;;;;;;5028361;28;20049;-58
2022/03/09 00:52:33;;;;;;;41.55;17.60;;;7.20;99.90;;;;;;5029169;28;20049;-57
2022/03/09 00:55:00;;;;;;;38.42;17.40;;;7.20;99.90;;;;;;5027937;28;20056;-58
2022/03/09 00:57:28;;;;;;;34.10;17.40;;;7.20;99.90;;;;;;5012389;28;20045;-58
2022/03/09 00:59:56;;;;;;;37.85;17.73;;;7.20;99.90;;;;;;5028475;28;20045;-59
2022/03/09 01:02:23;;;;;;;34.75;16.90;;;7.20;99.90;;;;;;5027005;28;20397;-58
2022/03/09 01:04:51;;;;;;;35.33;16.25;;;7.10;99.90;;;;;;5007577;28;20049;-59
2022/03/09 01:07:19;;;;;;;39.53;16.40;;;7.10;99.90;;;;;;5026937;28;20044;-59
2022/03/09 01:09:47;;;;;;;39.65;18.83;;;7.10;99.90;;;;;;5031513;28;20045;-58
2022/03/09 01:12:15;;;;;;;40.08;17.70;;;7.10;99.90;;;;;;5031083;28;20408;-58
2022/03/09 01:14:43;;;;;;;41.60;19.48;;;7.10;99.90;;;;;;5028447;28;20050;-59
2022/03/09 01:17:10;;;;;;;40.58;17.52;;;7.00;99.90;;;;;;5028037;28;20049;-59
2022/03/09 01:19:38;;;;;;;36.92;17.33;;;7.00;99.90;;;;;;5028392;28;20041;-59
2022/03/09 01:22:06;;;;;;;40.67;18.25;;;6.90;99.90;;;;;;5023349;28;20037;-59
2022/03/09 01:24:33;;;;;;;42.20;16.45;;;6.90;99.90;;;;;;5027322;28;20049;-59
2022/03/09 01:27:01;;;;;;;36.13;15.80;;;6.90;99.90;;;;;;5028210;28;20050;-59
2022/03/09 01:29:29;;;;;;;38.88;14.90;;;6.90;99.90;;;;;;5027859;28;20516;-59
2022/03/09 01:31:56;;;;;;;39.13;16.15;;;6.90;99.90;;;;;;5023608;28;20052;-59
2022/03/09 01:34:24;;;;;;;37.55;16.77;;;6.90;99.90;;;;;;5020246;28;20038;-59
2022/03/09 01:36:52;;;;;;;36.92;16.55;;;6.90;99.90;;;;;;5022353;28;20409;-59
2022/03/09 01:39:20;;;;;;;35.47;16.00;;;6.90;99.90;;;;;;5026204;28;20048;-60
2022/03/09 01:41:51;;;;;;;40.75;18.88;;;7.00;99.90;;;;;;5022327;28;20068;-59
2022/03/09 01:44:21;;;;;;;36.55;17.42;;;7.10;99.90;;;;;;5014408;28;20045;-60
2022/03/09 01:46:55;;;;;;;47.22;15.82;;;7.20;99.90;;;;;;5023146;28;20041;-60
2022/03/09 01:49:24;;;;;;;37.03;16.15;;;7.30;99.90;;;;;;5023488;28;20821;-60
2022/03/09 01:51:57;;;;;;;34.35;16.98;;;7.40;99.90;;;;;;5017259;28;20056;-60
2022/03/09 01:54:26;;;;;;;40.03;17.35;;;7.40;99.90;;;;;;5020350;28;20046;-60
2022/03/09 01:56:56;;;;;;;34.08;15.73;;;7.50;99.90;;;;;;5024153;28;20045;-59
2022/03/09 01:59:24;;;;;;;37.45;16.83;;;7.60;99.90;;;;;;5007668;28;20045;-58
2022/03/09 02:01:52;;;;;;;33.83;15.18;;;7.60;99.90;;;;;;5023039;28;20060;-58
2022/03/09 02:04:21;;;;;;;36.25;14.52;;;7.60;99.90;;;;;;5023247;28;20044;-58
2022/03/09 02:06:48;;;;;;;31.42;14.73;;;7.70;99.90;;;;;;5005410;28;20044;-59
2022/03/09 02:12:03;;;;;;;31.13;13.57;;;7.70;99.90;;;;;;5014859;28;20060;-59
2022/03/09 02:14:39;;;;;;;30.13;12.23;;;7.80;99.90;;;;;;5027389;28;20041;-60
2022/03/09 02:17:13;;;;;;;26.63;11.13;;;7.80;99.90;;;;;;5027409;28;20057;-59
2022/03/09 02:19:43;;;;;;;32.72;13.00;;;7.80;99.90;;;;;;5028074;28;20228;-59
2022/03/09 02:22:20;;;;;;;38.92;13.27;;;7.80;99.90;;;;;;5028188;28;20049;-59
2022/03/09 02:24:50;;;;;;;27.73;11.15;;;7.80;99.90;;;;;;5026943;28;20045;-59
2022/03/09 02:27:20;;;;;;;27.70;10.98;;;7.80;99.90;;;;;;5027213;28;20053;-60
2022/03/09 02:29:49;;;;;;;25.80;10.38;;;7.90;99.90;;;;;;5010630;28;20513;-59
2022/03/09 02:32:17;;;;;;;30.17;11.25;;;7.80;99.90;;;;;;5026544;28;20053;-59
2022/03/09 02:34:44;;;;;;;27.67;11.27;;;7.90;99.90;;;;;;5034832;28;20045;-60
2022/03/09 02:37:12;;;;;;;31.85;9.75;;;7.90;99.90;;;;;;5034719;28;20053;-59
2022/03/09 02:39:40;;;;;;;22.58;9.05;;;7.90;99.90;;;;;;5034408;28;20049;-59
2022/03/09 02:42:09;;;;;;;21.48;7.57;;;7.90;99.90;;;;;;5033927;28;20042;-59
2022/03/09 02:44:37;;;;;;;28.17;9.38;;;7.90;99.90;;;;;;5034076;28;20037;-58
2022/03/09 02:47:07;;;;;;;26.38;8.80;;;7.90;99.90;;;;;;5032569;28;20524;-58
2022/03/09 02:49:35;;;;;;;26.85;9.65;;;7.90;99.90;;;;;;5034310;28;20519;-59
2022/03/09 02:52:05;;;;;;;32.28;9.38;;;7.80;99.90;;;;;;5033470;28;20052;-59
2022/03/09 02:54:32;;;;;;;21.40;9.20;;;7.90;99.90;;;;;;5033439;28;20046;-59
2022/03/09 02:57:00;;;;;;;24.17;8.57;;;7.90;99.90;;;;;;5033302;28;20060;-59
2022/03/09 02:59:28;;;;;;;23.67;8.00;;;7.90;99.90;;;;;;5033951;28;20041;-59
2022/03/09 03:01:55;;;;;;;22.23;8.77;;;7.90;99.90;;;;;;5034530;28;20060;-60
2022/03/09 03:04:23;;;;;;;27.35;7.90;;;7.90;99.90;;;;;;5029592;28;20547;-60
2022/03/09 03:06:51;;;;;;;26.20;9.40;;;7.90;99.90;;;;;;5034262;28;20057;-60
2022/03/09 03:09:18;;;;;;;21.77;7.25;;;7.90;99.90;;;;;;5034264;28;20057;-60
2022/03/09 03:11:46;;;;;;;22.05;8.10;;;8.00;99.90;;;;;;5033706;28;20516;-59
2022/03/09 03:14:14;;;;;;;23.40;7.75;;;8.00;99.90;;;;;;5033643;28;20045;-62
2022/03/09 03:16:42;;;;;;;32.92;8.10;;;8.00;99.90;;;;;;5033695;28;20505;-60
2022/03/09 03:19:10;;;;;;;19.42;6.65;;;8.00;99.90;;;;;;5034290;28;20498;-59
2022/03/09 03:21:37;;;;;;;26.98;6.93;;;8.00;99.90;;;;;;5016228;28;20045;-59
2022/03/09 03:24:06;;;;;;;21.60;7.00;;;8.00;99.90;;;;;;5033505;28;20041;-60
2022/03/09 03:26:33;;;;;;;15.48;6.05;;;8.00;99.90;;;;;;5017183;28;20053;-59
2022/03/09 03:29:01;;;;;;;23.10;5.43;;;8.00;99.90;;;;;;5033453;28;20382;-60
2022/03/09 03:31:29;;;;;;;19.83;6.70;;;8.00;99.90;;;;;;5013869;28;20061;-60
2022/03/09 03:33:58;;;;;;;19.92;6.97;;;8.00;99.90;;;;;;5033753;28;20042;-60
2022/03/09 03:36:25;;;;;;;24.23;6.22;;;8.00;99.90;;;;;;5033369;28;20056;-59
2022/03/09 03:38:53;;;;;;;29.77;7.78;;;8.00;99.90;;;;;;5031419;28;20052;-60
2022/03/09 03:41:21;;;;;;;19.55;6.38;;;8.00;99.90;;;;;;5033807;28;20056;-60
2022/03/09 03:43:48;;;;;;;21.00;6.65;;;8.10;99.90;;;;;;5035638;28;20041;-60
2022/03/09 03:46:16;;;;;;;12.68;6.53;;;8.10;99.90;;;;;;5012732;28;20076;-60
2022/03/09 03:48:44;;;;;;;24.65;6.53;;;8.10;99.90;;;;;;5027362;28;20436;-59
2022/03/09 03:51:12;;;;;;;17.25;5.57;;;8.00;99.90;;;;;;5017766;28;20037;-60
2022/03/09 03:53:39;;;;;;;19.77;6.13;;;8.00;99.90;;;;;;5012119;28;20044;-58
2022/03/09 03:56:07;;;;;;;22.42;6.47;;;8.00;99.90;;;;;;5029751;28;20045;-58
2022/03/09 03:58:36;;;;;;;21.45;5.45;;;8.00;99.90;;;;;;5030003;28;20524;-59
2022/03/09 04:01:03;;;;;;;16.67;4.72;;;7.90;99.90;;;;;;5032556;28;20500;-59
2022/03/09 04:03:31;;;;;;;25.52;5.10;;;7.90;99.90;;;;;;5031774;28;20057;-60
2022/03/09 04:06:02;;;;;;;22.90;4.25;;;7.90;99.90;;;;;;5032299;28;20057;-59
2022/03/09 04:08:31;;;;;;;15.27;4.47;;;7.90;99.90;;;;;;5032148;28;20041;-59
2022/03/09 04:11:01;;;;;;;13.00;4.05;;;7.90;99.90;;;;;;5032844;28;20056;-59
2022/03/09 04:13:28;;;;;;;20.52;4.47;;;7.90;99.90;;;;;;5032971;28;20054;-59
2022/03/09 04:15:56;;;;;;;15.73;4.68;;;7.80;99.90;;;;;;5032131;28;20558;-59
2022/03/09 04:18:24;;;;;;;13.85;4.10;;;7.90;99.90;;;;;;5014045;28;20389;-60
2022/03/09 04:20:52;;;;;;;20.50;4.78;;;7.90;99.90;;;;;;5013114;28;20061;-59
2022/03/09 04:23:19;;;;;;;19.30;5.97;;;7.80;99.90;;;;;;5020898;28;20654;-59
2022/03/09 04:25:47;;;;;;;13.90;3.80;;;7.80;99.90;;;;;;5032413;28;20477;-59
2022/03/09 04:28:15;;;;;;;21.67;3.85;;;7.80;99.90;;;;;;5032772;28;20076;-59
2022/03/09 04:30:44;;;;;;;19.10;4.68;;;7.80;99.90;;;;;;5014341;28;20053;-59
2022/03/09 04:33:11;;;;;;;17.55;3.83;;;7.70;99.90;;;;;;5032651;28;20045;-59
2022/03/09 04:35:39;;;;;;;14.55;4.03;;;7.70;99.90;;;;;;5031673;28;20061;-59
2022/03/09 04:38:09;;;;;;;18.25;4.45;;;7.70;99.90;;;;;;5032510;28;20048;-59
2022/03/09 04:40:36;;;;;;;15.02;4.07;;;7.70;99.90;;;;;;5032200;28;20050;-59
2022/03/09 04:43:04;;;;;;;13.88;3.85;;;7.60;99.90;;;;;;5032020;28;20050;-59
2022/03/09 04:45:31;;;;;;;18.85;3.97;;;7.60;99.90;;;;;;5004718;28;20046;-59
2022/03/09 04:47:59;;;;;;;15.38;3.55;;;7.60;99.90;;;;;;5013807;28;20049;-59
2022/03/09 04:50:27;;;;;;;23.30;4.18;;;7.50;99.90;;;;;;5030621;28;20041;-59
2022/03/09 04:52:55;;;;;;;25.02;3.45;;;7.50;99.90;;;;;;5032328;28;20539;-59
2022/03/09 04:55:22;;;;;;;18.25;3.75;;;7.50;99.90;;;;;;5031801;28;20060;-59
2022/03/09 04:57:50;;;;;;;16.85;3.90;;;7.50;99.90;;;;;;5031507;28;20441;-59
2022/03/09 05:00:18;;;;;;;16.05;4.13;;;7.50;99.90;;;;;;5030872;28;20440;-59
2022/03/09 05:02:45;;;;;;;16.98;4.40;;;7.50;99.90;;;;;;5031790;28;20061;-60
2022/03/09 05:05:13;;;;;;;17.05;4.60;;;7.50;99.90;;;;;;5013633;28;20056;-59
2022/03/09 05:07:41;;;;;;;22.40;4.60;;;7.50;99.90;;;;;;5029273;28;20624;-59
2022/03/09 05:10:10;;;;;;;22.75;6.05;;;7.50;99.90;;;;;;5010783;28;20046;-58
2022/03/09 05:12:38;;;;;;;26.67;5.67;;;7.50;99.90;;;;;;5028464;28;20057;-58
2022/03/09 05:15:06;;;;;;;20.63;6.88;;;7.50;99.90;;;;;;5010656;28;20053;-58
2022/03/09 05:17:40;;;;;;;20.55;6.32;;;7.50;99.90;;;;;;5012109;28;20405;-58
2022/03/09 05:20:09;;;;;;;19.50;6.32;;;7.50;99.90;;;;;;5015151;28;20046;-58
2022/03/09 05:22:37;;;;;;;24.58;7.35;;;7.40;99.90;;;;;;5027436;28;20042;-58
2022/03/09 05:25:06;;;;;;;22.20;6.60;;;7.40;99.90;;;;;;5029230;28;20049;-58
2022/03/09 05:27:38;;;;;;;18.70;6.75;;;7.40;99.90;;;;;;5031373;28;20049;-58
2022/03/09 05:30:06;;;;;;;23.77;7.60;;;7.40;99.90;;;;;;5031004;28;20057;-58
2022/03/09 05:32:34;;;;;;;29.73;7.70;;;7.40;99.90;;;;;;5028140;28;20501;-58
2022/03/09 05:35:03;;;;;;;32.78;6.00;;;7.40;99.90;;;;;;5009930;28;20489;-58
2022/03/09 05:37:39;;;;;;;25.73;5.80;;;7.40;99.90;;;;;;5011656;28;20053;-58
2022/03/09 05:40:07;;;;;;;19.02;6.05;;;7.40;99.90;;;;;;5031323;28;20045;-58
2022/03/09 05:42:35;;;;;;;21.77;5.82;;;7.50;99.90;;;;;;5031392;28;20045;-58
2022/03/09 05:45:04;;;;;;;14.18;4.80;;;7.50;99.90;;;;;;5020700;28;20038;-59
2022/03/09 05:47:47;;;;;;;22.65;5.50;;;7.40;99.90;;;;;;5014928;28;20041;-59
2022/03/09 05:50:15;;;;;;;18.75;4.70;;;7.40;99.90;;;;;;5010601;28;20527;-59
2022/03/09 05:52:44;;;;;;;19.90;5.03;;;7.40;99.90;;;;;;5029694;28;20046;-59
2022/03/09 05:55:12;;;;;;;22.00;5.68;;;7.40;99.90;;;;;;5030587;28;20382;-59
2022/03/09 05:57:39;;;;;;;21.25;5.25;;;7.40;99.90;;;;;;4995374;28;20056;-58
2022/03/09 06:00:08;;;;;;;20.52;6.05;;;7.30;99.90;;;;;;5030288;28;20042;-58
2022/03/09 06:02:40;;;;;;;23.27;5.45;;;7.30;99.90;;;;;;5015308;28;20053;-58
2022/03/09 06:05:09;;;;;;;24.60;6.18;;;7.30;99.90;;;;;;5021980;28;20056;-57
2022/03/09 06:07:37;;;;;;;20.27;7.63;;;7.30;99.90;;;;;;5022948;28;20049;-58
2022/03/09 06:10:05;;;;;;;28.27;5.97;;;7.30;99.90;;;;;;5023562;28;20052;-58
2022/03/09 06:12:33;;;;;;;19.88;6.30;;;7.30;99.90;;;;;;5009046;28;20077;-59
2022/03/09 06:15:00;;;;;;;24.15;7.00;;;7.30;99.90;;;;;;5027743;28;20048;-58
2022/03/09 06:17:32;;;;;;;19.33;6.25;;;7.30;99.90;;;;;;5018536;28;20045;-59
2022/03/09 06:20:00;;;;;;;22.35;6.78;;;7.30;99.90;;;;;;5027465;28;20049;-59
2022/03/09 06:22:28;;;;;;;24.80;7.40;;;7.30;99.90;;;;;;5029221;28;20046;-58
2022/03/09 06:24:55;;;;;;;17.00;5.57;;;7.30;99.90;;;;;;5011880;28;20058;-58
2022/03/09 06:27:23;;;;;;;31.05;6.68;;;7.30;99.90;;;;;;5027565;28;20054;-58
2022/03/09 06:29:55;;;;;;;12.32;5.00;;;7.20;99.90;;;;;;5027027;28;20041;-58
2022/03/09 06:32:23;;;;;;;21.50;5.87;;;7.30;99.90;;;;;;5027088;28;20444;-58
2022/03/09 06:34:51;;;;;;;21.02;5.53;;;7.30;99.90;;;;;;5027003;28;20046;-58
2022/03/09 06:37:19;;;;;;;24.40;6.60;;;7.30;99.90;;;;;;5027474;28;20046;-58
2022/03/09 06:39:47;;;;;;;18.85;5.57;;;7.30;99.90;;;;;;5027189;28;20057;-58
2022/03/09 06:42:14;;;;;;;13.55;5.22;;;7.30;99.90;;;;;;5022167;28;20072;-58
2022/03/09 06:44:42;;;;;;;18.73;4.57;;;7.30;99.90;;;;;;5004486;28;20053;-58
2022/03/09 06:47:09;;;;;;;20.65;6.65;;;7.30;99.90;;;;;;5009516;28;20049;-58
2022/03/09 06:49:37;;;;;;;19.38;4.60;;;7.40;99.90;;;;;;5027061;28;20042;-59
2022/03/09 06:52:05;;;;;;;13.90;5.10;;;7.40;99.90;;;;;;5026898;28;20049;-59
2022/03/09 06:54:33;;;;;;;11.00;4.47;;;7.40;99.90;;;;;;5027192;28;20052;-59
2022/03/09 06:57:01;;;;;;;19.83;4.50;;;7.40;99.90;;;;;;5024111;28;20512;-58
2022/03/09 06:59:28;;;;;;;14.75;3.65;;;7.40;99.90;;;;;;5024334;28;20048;-58
2022/03/09 07:01:56;;;;;;;14.82;4.47;;;7.40;99.90;;;;;;5023193;28;20057;-58
2022/03/09 07:04:24;;;;;;;34.72;4.60;;;7.40;99.90;;;;;;5023754;28;20489;-58
2022/03/09 07:06:52;;;;;;;15.93;4.95;;;7.40;99.90;;;;;;5027089;28;20049;-58
2022/03/09 07:09:19;;;;;;;13.50;3.88;;;7.40;99.90;;;;;;5029467;28;20060;-58
2022/03/09 07:11:47;;;;;;;13.00;4.50;;;7.50;99.90;;;;;;5029998;28;20042;-58
2022/03/09 07:14:15;;;;;;;17.70;4.88;;;7.50;99.90;;;;;;5006957;28;20410;-58
2022/03/09 07:16:43;;;;;;;15.02;3.97;;;7.50;99.90;;;;;;5030086;28;20050;-58
2022/03/09 07:19:11;;;;;;;14.73;4.45;;;7.50;99.90;;;;;;5012895;28;20042;-59
2022/03/09 07:21:39;;;;;;;17.42;4.05;;;7.50;99.90;;;;;;5028337;28;20055;-59
2022/03/09 07:24:07;;;;;;;16.52;3.05;;;7.50;99.90;;;;;;5028265;28;20054;-59
2022/03/09 07:26:40;;;;;;;14.77;3.70;;;7.60;99.90;;;;;;5026839;28;20064;-59
2022/03/09 07:29:11;;;;;;;9.23;3.60;;;7.50;99.90;;;;;;5029034;28;20060;-58
2022/03/09 07:31:39;;;;;;;9.40;3.38;;;7.60;99.90;;;;;;5029824;28;20044;-58
2022/03/09 07:34:07;;;;;;;9.07;3.22;;;7.60;99.90;;;;;;5028936;28;20060;-59
2022/03/09 07:36:35;;;;;;;9.32;3.33;;;7.70;99.90;;;;;;5027601;28;20046;-59
2022/03/09 07:39:03;;;;;;;10.45;3.85;;;7.70;99.90;;;;;;5027067;28;20431;-59
2022/03/09 07:41:46;;;;;;;13.40;3.85;;;7.80;99.90;;;;;;5004469;28;20068;-59
2022/03/09 07:44:18;;;;;;;12.30;2.75;;;7.80;99.90;;;;;;5022255;28;20050;-59
2022/03/09 07:46:46;;;;;;;16.38;3.95;;;7.80;99.90;;;;;;5018212;28;20056;-60
2022/03/09 07:49:14;;;;;;;21.10;4.60;;;7.80;99.90;;;;;;5030052;28;20049;-60
2022/03/09 07:51:42;;;;;;;9.25;2.90;;;7.80;99.90;;;;;;5025043;28;20048;-60
2022/03/09 07:54:09;;;;;;;9.20;2.85;;;7.90;99.90;;;;;;5029048;28;20061;-58
2022/03/09 07:56:38;;;;;;;15.50;3.53;;;7.90;99.90;;;;;;5014685;28;20052;-58
2022/03/09 07:59:08;;;;;;;20.08;3.50;;;7.90;99.90;;;;;;5024224;28;20056;-58
2022/03/09 08:01:36;;;;;;;18.35;3.28;;;8.00;99.90;;;;;;5019043;28;20050;-58
2022/03/09 08:04:09;;;;;;;;;;;8.00;99.90;;;;;;5025910;28;20053;-58
2022/03/09 08:06:37;;;;;;;14.70;2.92;;;8.00;99.90;;;;;;5027277;28;20376;-58
2022/03/09 08:09:07;;;;;;;7.55;1.90;;;8.10;99.90;;;;;;5028937;28;20045;-58
2022/03/09 08:11:34;;;;;;;18.30;3.08;;;8.10;99.90;;;;;;5018277;28;20053;-59
2022/03/09 08:14:02;;;;;;;12.52;2.60;;;8.10;99.90;;;;;;5018778;28;20056;-59
2022/03/09 08:16:30;;;;;;;10.43;2.63;;;8.10;99.90;;;;;;5019560;28;20076;-58
2022/03/09 08:18:57;;;;;;;18.67;2.35;;;8.20;99.90;;;;;;5027665;28;20678;-58
2022/03/09 08:21:35;;;;;;;14.38;2.25;;;8.20;99.90;;;;;;5027778;28;20049;-57
2022/03/09 08:24:04;;;;;;;10.52;2.67;;;8.20;99.90;;;;;;5011352;28;20057;-58
2022/03/09 08:26:32;;;;;;;14.57;2.33;;;8.20;99.90;;;;;;5029191;28;20041;-57
2022/03/09 08:29:00;;;;;;;10.55;1.85;;;8.30;99.90;;;;;;5025647;28;20060;-58
2022/03/09 08:31:28;;;;;;;17.70;2.35;;;8.30;99.90;;;;;;5022510;28;20058;-59
2022/03/09 08:33:55;;;;;;;15.25;2.15;;;8.40;99.90;;;;;;5024805;28;20513;-60
2022/03/09 08:36:23;;;;;;;13.68;2.88;;;8.40;99.90;;;;;;5024157;28;20041;-60
2022/03/09 08:38:51;;;;;;;21.00;4.93;;;8.40;99.90;;;;;;5025973;28;20049;-59
2022/03/09 08:41:18;;;;;;;15.98;2.35;;;8.40;99.90;;;;;;5027039;28;20501;-59
2022/03/09 08:43:46;;;;;;;7.35;1.83;;;8.40;99.90;;;;;;5027615;28;20045;-59
2022/03/09 08:46:14;;;;;;;13.80;2.28;;;8.40;99.90;;;;;;5005102;28;20053;-59
2022/03/09 08:48:42;;;;;;;14.43;2.40;;;8.40;99.90;;;;;;5023950;28;20053;-60
2022/03/09 08:51:09;;;;;;;11.82;1.73;;;8.40;99.90;;;;;;5017595;28;20084;-58
2022/03/09 08:53:37;;;;;;;14.60;2.15;;;8.40;99.90;;;;;;5019836;28;20052;-60
2022/03/09 08:56:07;;;;;;;16.73;3.05;;;8.40;99.90;;;;;;5030928;28;20045;-59
2022/03/09 08:58:37;;;;;;;9.30;2.33;;;8.40;99.90;;;;;;5029182;28;20045;-58
2022/03/09 09:01:05;;;;;;;11.60;1.70;;;8.40;99.90;;;;;;5028313;28;20033;-59
2022/03/09 09:03:33;;;;;;;15.93;2.50;;;8.50;99.90;;;;;;5027994;28;20052;-58
2022/03/09 09:06:01;;;;;;;9.43;1.83;;;8.60;99.90;;;;;;5021278;28;20040;-57
2022/03/09 09:08:30;;;;;;;9.88;1.45;;;8.70;99.90;;;;;;5024867;28;20053;-58
2022/03/09 09:10:57;;;;;;;12.30;2.42;;;8.80;99.90;;;;;;5027620;28;20052;-58
2022/03/09 09:13:25;;;;;;;11.20;1.70;;;8.90;99.90;;;;;;5027299;28;20044;-58
2022/03/09 09:15:53;;;;;;;13.18;2.45;;;9.00;99.90;;;;;;5028184;28;20056;-57
2022/03/09 09:18:20;;;;;;;10.68;2.08;;;9.10;99.90;;;;;;5026895;28;20061;-57
2022/03/09 09:20:53;;;;;;;18.13;2.05;;;9.20;99.90;;;;;;5023349;28;20042;-58
2022/03/09 09:23:21;;;;;;;13.07;2.08;;;9.30;99.90;;;;;;5010938;28;20053;-58
2022/03/09 09:25:49;;;;;;;9.65;1.83;;;9.40;99.90;;;;;;5021665;28;20394;-59
2022/03/09 09:28:17;;;;;;;17.73;2.25;;;9.40;99.90;;;;;;5024634;28;20049;-59
2022/03/09 09:30:47;;;;;;;19.77;3.57;;;9.40;99.90;;;;;;5028094;28;20052;-59
2022/03/09 09:33:15;;;;;;;12.20;2.15;;;9.40;99.90;;;;;;5010633;28;20053;-58
2022/03/09 09:35:47;;;;;;;14.32;1.92;;;9.50;99.90;;;;;;5018281;28;20057;-59
2022/03/09 09:38:16;;;;;;;15.97;2.23;;;9.50;99.90;;;;;;4991196;28;20574;-59
2022/03/09 09:40:45;;;;;;;14.98;2.38;;;9.50;99.90;;;;;;5023074;28;20037;-59
2022/03/09 09:43:14;;;;;;;16.42;2.38;;;9.50;99.90;;;;;;5027734;28;20068;-58
2022/03/09 09:45:43;;;;;;;16.20;2.35;;;9.50;99.90;;;;;;5028015;28;20550;-59
2022/03/09 09:48:12;;;;;;;8.57;1.55;;;9.60;99.90;;;;;;5026740;28;20060;-58
2022/03/09 09:50:41;;;;;;;13.90;2.35;;;9.60;99.90;;;;;;5024536;28;20584;-58
2022/03/09 09:53:12;;;;;;;14.32;2.75;;;9.60;99.90;;;;;;5027765;28;20048;-58
2022/03/09 09:55:41;;;;;;;10.05;2.58;;;9.60;99.90;;;;;;5027060;28;20052;-59
2022/03/09 09:58:10;;;;;;;12.73;2.37;;;9.70;99.90;;;;;;5027726;28;20060;-58
2022/03/09 10:00:37;;;;;;;14.88;2.03;;;9.70;99.90;;;;;;5026253;28;20045;-59
2022/03/09 10:03:05;;;;;;;12.57;2.38;;;9.80;99.90;;;;;;5022178;28;20520;-57
2022/03/09 10:05:33;;;;;;;12.00;1.83;;;9.80;99.90;;;;;;5018624;28;20034;-59
2022/03/09 10:08:04;;;;;;;13.90;1.65;;;9.90;99.90;;;;;;5023518;28;20060;-58
2022/03/09 10:10:33;;;;;;;9.85;1.42;;;9.90;99.90;;;;;;5020013;28;20057;-58
2022/03/09 10:13:14;;;;;;;12.45;1.65;;;10.00;99.90;;;;;;5025088;28;20172;-57
2022/03/09 10:15:46;;;;;;;11.13;1.80;;;10.00;99.90;;;;;;5027726;28;20049;-58
2022/03/09 10:18:17;;;;;;;11.82;1.80;;;10.10;99.90;;;;;;5027239;28;20409;-58
2022/03/09 10:20:47;;;;;;;12.68;1.55;;;10.20;99.90;;;;;;5008945;28;20572;-58
2022/03/09 10:23:17;;;;;;;11.75;2.05;;;10.30;99.90;;;;;;5026214;28;20048;-57
2022/03/09 10:25:48;;;;;;;16.55;1.23;;;10.30;99.90;;;;;;5026310;28;20053;-57
2022/03/09 10:28:16;;;;;;;17.80;3.10;;;10.30;99.90;;;;;;5022649;28;20405;-57
2022/03/09 10:30:44;;;;;;;23.20;2.88;;;10.40;99.90;;;;;;5023045;28;20037;-57
2022/03/09 10:33:14;;;;;;;16.00;3.00;;;10.40;99.90;;;;;;5015488;28;20524;-57
2022/03/09 10:35:48;;;;;;;11.30;1.45;;;10.50;99.90;;;;;;5026361;28;20045;-57
2022/03/09 10:38:16;;;;;;;11.38;1.65;;;10.60;99.90;;;;;;5008244;28;20512;-58
2022/03/09 10:40:46;;;;;;;8.43;1.00;;;10.70;99.90;;;;;;5006179;28;20042;-57
2022/03/09 10:43:20;;;;;;;16.25;2.88;;;10.90;99.90;;;;;;5031180;28;20050;-58
2022/03/09 10:45:56;;;;;;;18.92;2.00;;;11.00;99.90;;;;;;5029333;28;20049;-58
2022/03/09 10:48:49;;;;;;;17.02;2.03;;;11.00;99.90;;;;;;5011919;28;20057;-57
2022/03/09 10:51:37;;;;;;;10.98;1.40;;;11.00;99.90;;;;;;5018000;28;20049;-57
2022/03/09 10:54:11;;;;;;;19.67;1.77;;;11.00;99.90;;;;;;5013513;28;20049;-57
2022/03/09 10:56:39;;;;;;;13.88;1.65;;;11.00;99.90;;;;;;5031438;28;20049;-57
2022/03/09 10:59:20;;;;;;;9.70;1.67;;;11.00;99.90;;;;;;5030746;28;20501;-58
2022/03/09 11:02:09;;;;;;;11.07;1.75;;;11.00;99.90;;;;;;5013970;28;20398;-58
2022/03/09 11:04:38;;;;;;;6.18;0.98;;;11.00;99.90;;;;;;5030763;28;20052;-58
2022/03/09 11:07:09;;;;;;;11.13;1.45;;;11.00;99.90;;;;;;5021328;28;20042;-58
2022/03/09 11:09:37;;;;;;;12.65;1.45;;;11.00;99.90;;;;;;5024558;28;20401;-59
2022/03/09 11:12:06;;;;;;;12.43;2.05;;;10.90;99.90;;;;;;5030124;28;20053;-59
2022/03/09 11:14:35;;;;;;;11.35;1.48;;;10.90;99.90;;;;;;5029999;28;20041;-58
2022/03/09 11:17:03;;;;;;;11.07;1.52;;;10.90;99.90;;;;;;5029673;28;20046;-58
2022/03/09 11:19:31;;;;;;;13.70;1.73;;;10.90;99.90;;;;;;5030596;28;20046;-59
2022/03/09 11:21:59;;;;;;;24.23;2.83;;;11.00;99.90;;;;;;5022661;28;20054;-59
2022/03/09 11:24:31;;;;;;;18.02;1.55;;;11.00;99.90;;;;;;5026755;28;20060;-59
2022/03/09 11:27:02;;;;;;;11.65;1.38;;;11.00;99.90;;;;;;5031653;28;20041;-60
2022/03/09 11:29:35;;;;;;;12.35;1.90;;;10.90;99.90;;;;;;5032446;28;20411;-59
2022/03/09 11:32:06;;;;;;;14.15;2.50;;;10.90;99.90;;;;;;5030867;28;20045;-57
2022/03/09 11:34:46;;;;;;;14.30;1.77;;;10.90;99.90;;;;;;5020182;28;20058;-58
2022/03/09 11:37:33;;;;;;;11.50;1.63;;;10.90;99.90;;;;;;5013577;28;20573;-58
2022/03/09 11:40:06;;;;;;;9.13;1.52;;;10.90;99.90;;;;;;5014626;28;20057;-58
2022/03/09 11:42:42;;;;;;;14.65;1.50;;;11.00;99.90;;;;;;5030126;28;20037;-58
2022/03/09 11:45:29;;;;;;;19.85;1.95;;;11.10;99.90;;;;;;5013364;28;20049;-58
2022/03/09 11:48:03;;;;;;;17.17;2.85;;;11.10;99.90;;;;;;5029933;28;20045;-57
2022/03/09 11:50:57;;;;;;;11.18;1.77;;;11.20;99.90;;;;;;5030096;28;20420;-57
2022/03/09 11:53:41;;;;;;;5.68;1.60;;;11.20;99.90;;;;;;5025675;28;20068;-58
2022/03/09 11:56:39;;;;;;;11.30;2.70;;;11.20;99.90;;;;;;5009995;28;20049;-58
2022/03/09 11:59:15;;;;;;;11.50;1.40;;;11.20;99.90;;;;;;5026716;28;20057;-58
2022/03/09 12:01:56;;;;;;;14.13;1.50;;;11.20;99.90;;;;;;5026954;28;20056;-58
2022/03/09 12:04:42;;;;;;;11.52;2.03;;;11.30;99.90;;;;;;5024398;28;20053;-58
2022/03/09 12:07:11;;;;;;;13.50;1.52;;;11.40;99.90;;;;;;5018490;28;20049;-58
2022/03/09 12:09:57;;;;;;;12.13;0.95;;;11.50;99.90;;;;;;5023481;28;20060;-59
2022/03/09 12:12:27;;;;;;;12.70;1.23;;;11.60;99.90;;;;;;5024176;28;20508;-58
2022/03/09 12:15:02;;;;;;;11.25;1.70;;;11.60;99.90;;;;;;5027154;28;20500;-58
2022/03/09 12:17:38;;;;;;;12.38;1.55;;;11.70;99.90;;;;;;5028145;28;20048;-59
2022/03/09 12:20:31;;;;;;;13.68;1.65;;;11.70;99.90;;;;;;5028203;28;20052;-59
2022/03/09 12:23:01;;;;;;;8.85;1.85;;;11.90;99.90;;;;;;5028396;28;20049;-59
2022/03/09 12:25:46;;;;;;;16.10;1.80;;;11.90;99.90;;;;;;5026763;28;20049;-60
2022/03/09 12:28:23;;;;;;;20.67;1.70;;;11.90;99.90;;;;;;5028405;28;20620;-58
2022/03/09 12:30:59;;;;;;;10.30;1.25;;;11.80;99.90;;;;;;5027996;28;20073;-57
2022/03/09 12:33:41;;;;;;;9.90;1.08;;;11.60;99.90;;;;;;5027722;28;20045;-58
2022/03/09 12:36:22;;;;;;;10.75;1.10;;;11.50;99.90;;;;;;5027979;28;20519;-58
2022/03/09 12:38:58;;;;;;;14.07;1.50;;;11.40;99.90;;;;;;5014371;28;20493;-59
2022/03/09 12:41:28;;;;;;;12.65;2.00;;;11.30;99.90;;;;;;5019528;28;20050;-60
2022/03/09 12:43:57;;;;;;;;;;;11.30;99.90;;;;;;5012324;28;20424;-59
2022/03/09 12:46:26;;;;;;;7.60;1.10;;;11.30;99.90;;;;;;5028338;28;19925;-58
2022/03/09 12:49:05;;;;;;;8.13;1.55;;;11.40;99.90;;;;;;5029374;28;20045;-58
2022/03/09 12:51:33;;;;;;;14.35;1.23;;;11.40;99.90;;;;;;5028452;28;20085;-59
2022/03/09 12:54:40;;;;;;;9.38;1.52;;;11.40;99.90;;;;;;5028539;28;20520;-59
2022/03/09 12:57:32;;;;;;;6.68;1.05;;;11.50;99.90;;;;;;5027331;28;20049;-59
2022/03/09 13:00:13;;;;;;;4.60;1.10;;;11.50;99.90;;;;;;5028766;28;20060;-57